首页
METAR-TAF:

METAR-TAF

机场 :

波纳佩国际机场

波纳佩, 密克罗尼西亚群岛

纬度: 06-59N, 经度: 158-12E, 海拔: 2米

当前天气观测

该预报发布于12小时和32分钟前的02:55 UTC
风速7节,风向
温度 29°C
湿度 84%
气压 1009 hPa
能見度: 24.1公里
多云层高于1800英尺
多云层高于13000英尺
阴天层高于30000英尺

METAR: PTPN 170255Z 10007KT 15SM BKN018 BKN130 OVC300 29/26 A2979 RMK LAST

时间: 02:27 (15:27 UTC)

预报

该预报发布于16小时和7分钟前的23:20 UTC
预报有效从17日的 00点(UTC)到 17日的 24点(UTC)
风速9节,风向东北
能見度: 10公里
多云层高于1700英尺
阴天层高于10000英尺
附近有阵雨
短暂存在
从 17日的 01点(UTC)到 17日的 05点(UTC)
能見度: 4.8公里
阴天层高于1700英尺
大阵雨
从 17日的 1500点(UTC)
风速9节,风向东北
能見度: 10公里
散云层高于1700英尺
多云层高于12000英尺
附近有阵雨

TAF: PTPN 162320Z 1700/1724 05009KT P6SM VCSH BKN017 OVC100 TEMPO 1701/1705 3SM +SHRA OVC017 FM171500 05009KT P6SM VCSH SCT017 BKN120

超过4000个机场的气象观测和天气预报(METAR&TAF报告)。

可查询的气象台以黄色和红色小点在地图上表示。

将鼠标移到小点上方,可查看气象台名称。

然后点击查看天气观测和预报。

如需切换地图:点击带黑十字的绿色按钮放大地图;点击带横线的绿色按钮缩小地图;或者点击绿色箭头查看邻近地区的地图。


METAR-TAF: